createdAt,value
2023-02-19T00:01:49.244Z,0.30
2023-02-19T00:04:20.080Z,0.32
2023-02-19T00:06:47.785Z,0.20
2023-02-19T00:09:16.569Z,0.22
2023-02-19T00:11:43.617Z,0.30
2023-02-19T00:14:14.987Z,0.40
2023-02-19T00:16:41.632Z,0.13
2023-02-19T00:19:12.882Z,1.00
2023-02-19T00:21:39.580Z,0.20
2023-02-19T00:24:07.772Z,0.20
2023-02-19T00:26:35.086Z,0.13
2023-02-19T00:29:02.308Z,0.30
2023-02-19T00:31:33.025Z,0.20
2023-02-19T00:34:02.863Z,0.50
2023-02-19T00:36:30.894Z,0.30
2023-02-19T00:38:57.837Z,0.20
2023-02-19T00:41:31.584Z,0.20
2023-02-19T00:43:58.231Z,0.30
2023-02-19T00:46:30.980Z,0.30
2023-02-19T00:48:58.368Z,0.32
2023-02-19T00:51:31.051Z,0.38
2023-02-19T00:53:58.332Z,0.20
2023-02-19T00:56:25.069Z,0.40
2023-02-19T00:58:52.056Z,0.80
2023-02-19T01:01:19.645Z,0.30
2023-02-19T01:03:48.960Z,0.40
2023-02-19T01:06:19.106Z,0.40
2023-02-19T01:08:46.300Z,0.50
2023-02-19T01:11:13.455Z,0.80
2023-02-19T01:13:43.357Z,0.52
2023-02-19T01:18:44.175Z,1.10
2023-02-19T01:21:17.244Z,1.48
2023-02-19T01:23:46.910Z,1.75
2023-02-19T01:26:16.482Z,1.40
2023-02-19T01:28:46.208Z,1.40
2023-02-19T01:31:15.755Z,1.58
2023-02-19T01:33:50.933Z,1.80
2023-02-19T01:36:20.417Z,1.67
2023-02-19T01:38:47.693Z,1.60
2023-02-19T01:41:18.025Z,1.60
2023-02-19T01:44:02.538Z,2.30
2023-02-19T01:46:34.000Z,1.33
2023-02-19T01:49:14.771Z,1.20
2023-02-19T01:52:07.297Z,1.08
2023-02-19T01:54:38.030Z,0.80
2023-02-19T01:57:07.711Z,0.65
2023-02-19T01:59:36.763Z,0.65
2023-02-19T02:02:11.461Z,0.47
2023-02-19T02:04:38.485Z,0.60
2023-02-19T02:07:26.269Z,0.45
2023-02-19T02:10:12.176Z,0.40
2023-02-19T02:12:38.842Z,0.50
2023-02-19T02:15:11.058Z,0.40
2023-02-19T02:17:58.542Z,0.50
2023-02-19T02:20:54.249Z,0.57
2023-02-19T02:23:55.170Z,0.38
2023-02-19T02:26:42.914Z,0.40
2023-02-19T02:29:47.293Z,0.38
2023-02-19T02:32:21.148Z,0.40
2023-02-19T02:34:54.587Z,0.40
2023-02-19T02:37:26.051Z,0.50
2023-02-19T02:39:56.614Z,0.60
2023-02-19T02:42:28.999Z,0.50
2023-02-19T02:45:17.355Z,0.43
2023-02-19T02:47:57.281Z,0.40
2023-02-19T02:53:19.435Z,0.70
2023-02-19T02:55:52.089Z,0.90
2023-02-19T02:58:21.585Z,1.10
2023-02-19T03:01:13.590Z,0.90
2023-02-19T03:03:47.418Z,0.90
2023-02-19T03:06:19.416Z,0.90
2023-02-19T03:08:49.701Z,0.90
2023-02-19T03:11:37.654Z,0.90
2023-02-19T03:14:55.817Z,1.20
2023-02-19T03:17:47.929Z,1.02
2023-02-19T03:20:18.202Z,1.30
2023-02-19T03:22:46.615Z,1.50
2023-02-19T03:25:37.480Z,1.70
2023-02-19T03:28:07.249Z,2.13
2023-02-19T03:30:40.136Z,2.13
2023-02-19T03:33:12.233Z,2.20
2023-02-19T03:36:05.834Z,2.58
2023-02-19T03:38:41.531Z,2.75
2023-02-19T03:41:21.267Z,2.70
2023-02-19T03:44:06.981Z,3.00
2023-02-19T03:46:40.646Z,2.95
2023-02-19T03:49:32.587Z,3.35
2023-02-19T03:52:07.039Z,3.25
2023-02-19T03:55:02.004Z,3.20
2023-02-19T03:57:36.370Z,3.20
2023-02-19T04:00:17.137Z,3.40
2023-02-19T04:03:03.540Z,3.47
2023-02-19T04:05:35.518Z,3.70
2023-02-19T04:08:11.177Z,3.40
2023-02-19T04:10:39.644Z,3.80
2023-02-19T04:13:19.542Z,3.60
2023-02-19T04:18:21.770Z,3.75
2023-02-19T04:20:48.989Z,3.42
2023-02-19T04:23:20.067Z,3.45
2023-02-19T04:25:50.970Z,3.53
2023-02-19T04:28:18.824Z,3.45
2023-02-19T04:30:46.927Z,3.25
2023-02-19T04:33:13.768Z,4.40
2023-02-19T04:35:40.524Z,4.00
2023-02-19T04:38:07.256Z,4.35
2023-02-19T04:40:36.590Z,4.10
2023-02-19T04:43:05.900Z,3.35
2023-02-19T04:45:32.590Z,3.33
2023-02-19T04:47:59.269Z,3.70
2023-02-19T04:50:26.275Z,3.80
2023-02-19T04:52:52.945Z,3.55
2023-02-19T04:55:19.743Z,3.35
2023-02-19T04:57:46.482Z,3.60
2023-02-19T05:00:13.840Z,3.80
2023-02-19T05:02:40.561Z,4.60
2023-02-19T05:05:07.422Z,4.10
2023-02-19T05:07:36.497Z,4.03
2023-02-19T05:10:07.865Z,4.10
2023-02-19T05:12:34.547Z,3.22
2023-02-19T05:15:01.218Z,3.28
2023-02-19T05:17:27.849Z,3.78
2023-02-19T05:19:54.495Z,3.75
2023-02-19T05:22:21.179Z,4.40
2023-02-19T05:24:47.847Z,3.42
2023-02-19T05:27:17.014Z,3.40
2023-02-19T05:29:43.713Z,3.50
2023-02-19T05:32:12.942Z,4.13
2023-02-19T05:34:41.918Z,4.18
2023-02-19T05:37:08.625Z,3.50
2023-02-19T05:39:35.346Z,3.90
2023-02-19T05:42:01.995Z,4.15
2023-02-19T05:44:31.263Z,4.47
2023-02-19T05:47:02.524Z,4.38
2023-02-19T05:49:29.172Z,4.43
2023-02-19T05:51:55.920Z,4.70
2023-02-19T05:54:24.939Z,5.07
2023-02-19T05:56:56.651Z,4.30
2023-02-19T05:59:28.408Z,4.10
2023-02-19T06:01:55.791Z,4.43
2023-02-19T06:04:23.466Z,4.78
2023-02-19T06:06:52.450Z,4.55
2023-02-19T06:09:19.175Z,5.30
2023-02-19T06:11:45.883Z,4.68
2023-02-19T06:14:15.557Z,5.38
2023-02-19T06:16:42.665Z,4.50
2023-02-19T06:19:11.971Z,5.50
2023-02-19T06:21:41.474Z,5.40
2023-02-19T06:24:08.968Z,5.03
2023-02-19T06:26:35.945Z,5.15
2023-02-19T06:29:02.764Z,5.00
2023-02-19T06:31:31.994Z,6.68
2023-02-19T06:33:58.788Z,5.05
2023-02-19T06:36:25.697Z,5.15
2023-02-19T06:38:52.453Z,4.88
2023-02-19T06:41:21.595Z,5.13
2023-02-19T06:43:48.281Z,5.33
2023-02-19T06:46:15.203Z,5.53
2023-02-19T06:48:43.705Z,5.38
2023-02-19T06:51:15.757Z,5.10
2023-02-19T06:53:44.598Z,4.50
2023-02-19T06:56:29.641Z,4.97
2023-02-19T06:58:59.786Z,5.05
2023-02-19T07:01:27.931Z,4.50
2023-02-19T07:03:54.898Z,4.90
2023-02-19T07:06:23.361Z,4.60
2023-02-19T07:08:56.834Z,5.03
2023-02-19T07:11:31.854Z,5.25
2023-02-19T07:14:02.750Z,4.90
2023-02-19T07:16:29.945Z,4.30
2023-02-19T07:18:58.024Z,4.95
2023-02-19T07:21:27.470Z,4.53
2023-02-19T07:23:57.062Z,4.32
2023-02-19T07:26:24.193Z,4.13
2023-02-19T07:28:52.419Z,4.53
2023-02-19T07:31:22.113Z,4.65
2023-02-19T07:33:49.090Z,5.00
2023-02-19T07:36:17.381Z,5.53
2023-02-19T07:38:47.297Z,5.03
2023-02-19T07:43:43.545Z,5.20
2023-02-19T07:46:12.602Z,5.47
2023-02-19T07:48:40.637Z,6.30
2023-02-19T07:51:10.957Z,5.18
2023-02-19T07:53:40.351Z,5.50
2023-02-19T07:56:10.476Z,6.50
2023-02-19T07:58:37.172Z,5.68
2023-02-19T08:01:44.254Z,5.53
2023-02-19T08:04:12.853Z,5.07
2023-02-19T08:06:39.854Z,6.80
2023-02-19T08:09:06.768Z,6.15
2023-02-19T08:11:51.867Z,6.03
2023-02-19T08:14:18.605Z,5.53
2023-02-19T08:16:50.357Z,5.45
2023-02-19T08:19:17.412Z,5.15
2023-02-19T08:21:44.130Z,5.30
2023-02-19T08:24:11.128Z,5.10
2023-02-19T08:26:38.192Z,5.10
2023-02-19T08:29:05.698Z,5.03
2023-02-19T08:31:33.579Z,4.90
2023-02-19T08:34:00.336Z,4.78
2023-02-19T08:36:27.430Z,4.72
2023-02-19T08:38:54.395Z,4.43
2023-02-19T08:41:21.364Z,5.57
2023-02-19T08:43:48.065Z,6.72
2023-02-19T08:46:18.042Z,5.13
2023-02-19T08:51:18.588Z,5.60
2023-02-19T08:53:46.382Z,4.97
2023-02-19T08:56:15.948Z,4.38
2023-02-19T08:58:45.460Z,5.20
2023-02-19T09:01:15.749Z,5.07
2023-02-19T09:03:45.169Z,5.53
2023-02-19T09:06:17.920Z,5.35
2023-02-19T09:08:47.010Z,5.13
2023-02-19T09:11:14.258Z,5.57
2023-02-19T09:13:41.216Z,5.65
2023-02-19T09:16:08.261Z,5.50
2023-02-19T09:18:35.422Z,5.43
2023-02-19T09:21:08.882Z,5.88
2023-02-19T09:23:40.099Z,6.18
2023-02-19T09:26:09.844Z,5.63
2023-02-19T09:28:42.747Z,5.65
2023-02-19T09:31:13.536Z,5.13
2023-02-19T09:33:45.029Z,5.47
2023-02-19T09:36:12.633Z,5.45
2023-02-19T09:38:42.327Z,5.60
2023-02-19T09:41:33.028Z,5.47
2023-02-19T09:44:01.769Z,4.78
2023-02-19T09:46:34.367Z,5.05
2023-02-19T09:49:30.103Z,4.20
2023-02-19T09:52:18.159Z,4.82
2023-02-19T09:54:48.440Z,4.82
2023-02-19T09:57:23.003Z,4.75
2023-02-19T09:59:54.060Z,4.45
2023-02-19T10:02:27.803Z,4.97
2023-02-19T10:04:58.050Z,5.80
2023-02-19T10:07:33.098Z,5.15
2023-02-19T10:10:20.441Z,5.35
2023-02-19T10:12:52.106Z,4.90
2023-02-19T10:15:31.001Z,5.40
2023-02-19T10:17:58.085Z,5.57
2023-02-19T10:20:27.798Z,6.18
2023-02-19T10:23:08.647Z,5.80
2023-02-19T10:25:39.080Z,5.68
2023-02-19T10:28:11.483Z,6.00
2023-02-19T10:30:38.286Z,5.65
2023-02-19T10:33:10.905Z,5.72
2023-02-19T10:35:58.350Z,5.63
2023-02-19T10:38:32.634Z,6.22
2023-02-19T10:40:59.281Z,5.38
2023-02-19T10:43:33.882Z,4.55
2023-02-19T10:46:07.236Z,4.68
2023-02-19T10:48:40.812Z,4.00
2023-02-19T10:51:13.426Z,4.90
2023-02-19T10:53:40.142Z,4.82
2023-02-19T10:56:09.891Z,4.03
2023-02-19T10:58:40.098Z,4.80
2023-02-19T11:01:15.140Z,4.30
2023-02-19T11:03:47.571Z,3.50
2023-02-19T11:06:16.637Z,3.22
2023-02-19T11:08:56.812Z,3.73
2023-02-19T11:11:36.152Z,3.53
2023-02-19T11:14:24.560Z,3.40
2023-02-19T11:16:56.733Z,3.30
2023-02-19T11:19:36.781Z,3.55
2023-02-19T11:22:50.864Z,2.88
2023-02-19T11:25:17.767Z,2.88
2023-02-19T11:27:53.960Z,3.28
2023-02-19T11:30:36.221Z,2.72
2023-02-19T11:33:16.227Z,3.05
2023-02-19T11:35:49.889Z,3.00
2023-02-19T11:38:19.402Z,3.03
2023-02-19T11:41:04.383Z,3.17
2023-02-19T11:43:55.987Z,3.35
2023-02-19T11:46:49.737Z,2.97
2023-02-19T11:49:41.524Z,2.88
2023-02-19T11:52:29.869Z,2.88
2023-02-19T11:55:05.285Z,3.00
2023-02-19T11:57:55.708Z,2.55
2023-02-19T12:00:24.927Z,2.33
2023-02-19T12:03:23.640Z,2.80
2023-02-19T12:06:12.125Z,2.67
2023-02-19T12:09:16.547Z,2.92
2023-02-19T12:11:53.517Z,2.88
2023-02-19T12:14:57.523Z,2.88
2023-02-19T12:17:42.259Z,2.80
2023-02-19T12:20:40.843Z,2.53
2023-02-19T12:23:25.785Z,2.28
2023-02-19T12:26:21.476Z,2.38
2023-02-19T12:29:22.372Z,3.08
2023-02-19T12:32:15.559Z,2.28
2023-02-19T12:35:19.704Z,2.55
2023-02-19T12:38:01.519Z,2.50
2023-02-19T12:40:50.026Z,2.55
2023-02-19T12:43:22.032Z,2.47
2023-02-19T12:45:58.784Z,2.80
2023-02-19T12:48:25.592Z,2.97
2023-02-19T12:50:58.700Z,2.78
2023-02-19T12:53:52.642Z,3.13
2023-02-19T12:56:25.170Z,3.80
2023-02-19T12:59:09.630Z,3.08
2023-02-19T13:02:05.476Z,3.45
2023-02-19T13:05:02.010Z,3.05
2023-02-19T13:07:38.028Z,3.00
2023-02-19T13:10:32.965Z,2.88
2023-02-19T13:13:04.616Z,2.88
2023-02-19T13:15:45.116Z,2.55
2023-02-19T13:18:24.521Z,2.47
2023-02-19T13:20:55.664Z,2.72
2023-02-19T13:24:03.436Z,2.38
2023-02-19T13:26:35.984Z,2.55
2023-02-19T13:29:22.439Z,2.80
2023-02-19T13:31:58.175Z,2.50
2023-02-19T13:34:55.720Z,2.53
2023-02-19T13:37:24.011Z,2.47
2023-02-19T13:39:55.297Z,2.40
2023-02-19T13:42:35.243Z,2.42
2023-02-19T13:45:08.583Z,2.30
2023-02-19T13:47:54.070Z,2.40
2023-02-19T13:50:33.881Z,2.72
2023-02-19T13:53:02.140Z,2.58
2023-02-19T13:55:46.090Z,2.65
2023-02-19T13:58:35.438Z,2.53
2023-02-19T14:01:09.847Z,2.88
2023-02-19T14:03:46.789Z,2.85
2023-02-19T14:06:14.211Z,2.95
2023-02-19T14:08:58.182Z,2.97
2023-02-19T14:11:45.113Z,2.97
2023-02-19T14:14:36.370Z,3.25
2023-02-19T14:17:28.300Z,3.00
2023-02-19T14:19:58.308Z,3.63
2023-02-19T14:22:46.606Z,2.78
2023-02-19T14:25:28.561Z,3.78
2023-02-19T14:28:00.983Z,2.90
2023-02-19T14:30:30.967Z,3.15
2023-02-19T14:33:10.519Z,3.20
2023-02-19T14:35:53.494Z,2.85
2023-02-19T14:38:35.417Z,2.70
2023-02-19T14:41:05.916Z,3.20
2023-02-19T14:43:35.138Z,3.30
2023-02-19T14:46:12.885Z,3.58
2023-02-19T14:48:45.821Z,3.50
2023-02-19T14:51:30.333Z,3.67
2023-02-19T14:53:58.751Z,3.10
2023-02-19T14:56:31.046Z,3.00
2023-02-19T14:59:22.975Z,2.70
2023-02-19T15:02:13.164Z,2.80
2023-02-19T15:04:42.056Z,3.00
2023-02-19T15:07:16.296Z,3.53
2023-02-19T15:09:51.740Z,2.75
2023-02-19T15:12:29.019Z,3.25
2023-02-19T15:15:02.788Z,3.20
2023-02-19T15:17:32.188Z,2.80
2023-02-19T15:20:03.987Z,2.58
2023-02-19T15:22:34.279Z,3.20
2023-02-19T15:25:02.844Z,3.50
2023-02-19T15:27:29.982Z,3.42
2023-02-19T15:29:56.780Z,3.08
2023-02-19T15:32:28.783Z,2.72
2023-02-19T15:35:02.837Z,2.97
2023-02-19T15:37:32.839Z,3.35
2023-02-19T15:40:07.683Z,3.75
2023-02-19T15:42:35.930Z,3.35
2023-02-19T15:45:15.509Z,3.17
2023-02-19T15:48:11.537Z,3.20
2023-02-19T15:50:44.545Z,3.38
2023-02-19T15:53:21.684Z,3.10
2023-02-19T15:56:02.715Z,3.95
2023-02-19T15:58:38.142Z,3.20
2023-02-19T16:01:22.262Z,3.15
2023-02-19T16:03:52.003Z,3.45
2023-02-19T16:06:18.992Z,3.60
2023-02-19T16:09:02.027Z,3.50
2023-02-19T16:11:48.887Z,3.33
2023-02-19T16:14:44.699Z,3.88
2023-02-19T16:17:11.320Z,3.90
2023-02-19T16:19:46.794Z,3.13
2023-02-19T16:22:19.784Z,3.88
2023-02-19T16:24:50.156Z,3.45
2023-02-19T16:27:34.663Z,3.28
2023-02-19T16:30:17.549Z,3.58
2023-02-19T16:32:47.073Z,4.15
2023-02-19T16:35:52.418Z,4.28
2023-02-19T16:38:20.474Z,3.88
2023-02-19T16:40:56.209Z,3.70
2023-02-19T16:43:41.446Z,2.83
2023-02-19T16:46:12.907Z,3.20
2023-02-19T16:48:39.873Z,3.70
2023-02-19T16:51:08.509Z,3.85
2023-02-19T16:53:38.509Z,4.43
2023-02-19T16:56:05.516Z,3.95
2023-02-19T16:58:34.441Z,3.78
2023-02-19T17:01:01.725Z,3.70
2023-02-19T17:03:28.753Z,4.22
2023-02-19T17:05:58.832Z,4.22
2023-02-19T17:08:37.121Z,3.70
2023-02-19T17:11:09.028Z,4.00
2023-02-19T17:13:40.367Z,3.72
2023-02-19T17:16:10.726Z,4.65
2023-02-19T17:18:37.596Z,4.45
2023-02-19T17:21:14.036Z,4.57
2023-02-19T17:23:40.835Z,4.45
2023-02-19T17:26:11.963Z,4.45
2023-02-19T17:28:41.270Z,4.47
2023-02-19T17:31:13.707Z,4.80
2023-02-19T17:33:41.078Z,4.88
2023-02-19T17:36:10.331Z,4.72
2023-02-19T17:38:37.007Z,4.47
2023-02-19T17:41:03.795Z,3.97
2023-02-19T17:43:32.987Z,5.22
2023-02-19T17:45:59.659Z,4.70
2023-02-19T17:48:26.427Z,4.55
2023-02-19T17:50:53.163Z,5.47
2023-02-19T17:53:19.860Z,5.15
2023-02-19T17:55:48.722Z,5.38
2023-02-19T17:58:17.745Z,5.60
2023-02-19T18:00:44.442Z,5.63
2023-02-19T18:03:11.121Z,5.57
2023-02-19T18:05:37.774Z,7.18
2023-02-19T18:08:04.557Z,5.88
2023-02-19T18:10:33.583Z,5.68
2023-02-19T18:13:00.236Z,5.40
2023-02-19T18:15:26.930Z,5.70
2023-02-19T18:17:57.241Z,5.80
2023-02-19T18:20:31.819Z,5.97
2023-02-19T18:22:58.660Z,6.47
2023-02-19T18:25:25.751Z,6.78
2023-02-19T18:27:55.208Z,7.97
2023-02-19T18:30:22.858Z,6.30
2023-02-19T18:32:50.351Z,6.75
2023-02-19T18:35:19.330Z,6.18
2023-02-19T18:37:49.541Z,6.10
2023-02-19T18:40:16.246Z,6.03
2023-02-19T18:42:47.355Z,6.25
2023-02-19T18:45:16.337Z,6.30
2023-02-19T18:47:46.524Z,6.07
2023-02-19T18:50:13.494Z,7.35
2023-02-19T18:52:40.155Z,7.28
2023-02-19T18:55:10.638Z,5.90
2023-02-19T18:57:37.518Z,6.88
2023-02-19T19:00:06.419Z,6.03
2023-02-19T19:02:47.078Z,6.68
2023-02-19T19:05:18.276Z,6.65
2023-02-19T19:07:44.982Z,6.28
2023-02-19T19:10:14.760Z,6.50
2023-02-19T19:12:46.285Z,6.57
2023-02-19T19:15:13.362Z,6.53
2023-02-19T19:17:43.131Z,5.82
2023-02-19T19:20:11.054Z,6.50
2023-02-19T19:22:38.063Z,5.25
2023-02-19T19:25:04.956Z,6.47
2023-02-19T19:27:31.692Z,5.90
2023-02-19T19:29:58.414Z,5.40
2023-02-19T19:32:25.087Z,5.55
2023-02-19T19:34:57.658Z,7.07
2023-02-19T19:37:26.172Z,5.45
2023-02-19T19:39:57.000Z,5.93
2023-02-19T19:42:26.635Z,6.05
2023-02-19T19:44:53.376Z,5.60
2023-02-19T19:47:20.118Z,5.60
2023-02-19T19:49:47.374Z,6.05
2023-02-19T19:52:16.939Z,5.75
2023-02-19T19:54:44.210Z,6.13
2023-02-19T19:57:11.568Z,5.78
2023-02-19T19:59:40.903Z,6.00
2023-02-19T20:02:10.752Z,7.00
2023-02-19T20:04:39.899Z,5.32
2023-02-19T20:07:06.556Z,5.60
2023-02-19T20:09:33.431Z,4.95
2023-02-19T20:12:00.139Z,4.88
2023-02-19T20:14:26.946Z,4.82
2023-02-19T20:16:55.440Z,4.93
2023-02-19T20:19:22.470Z,5.00
2023-02-19T20:21:51.323Z,4.63
2023-02-19T20:24:23.956Z,4.65
2023-02-19T20:26:52.849Z,5.25
2023-02-19T20:29:19.796Z,4.13
2023-02-19T20:31:51.267Z,4.68
2023-02-19T20:34:23.410Z,4.80
2023-02-19T20:36:50.118Z,4.28
2023-02-19T20:39:20.639Z,4.43
2023-02-19T20:41:54.277Z,5.95
2023-02-19T20:44:21.164Z,4.40
2023-02-19T20:46:51.903Z,4.88
2023-02-19T20:49:25.136Z,4.40
2023-02-19T20:52:03.024Z,4.43
2023-02-19T20:54:32.135Z,4.78
2023-02-19T20:57:04.060Z,4.80
2023-02-19T20:59:35.243Z,4.10
2023-02-19T21:02:08.044Z,5.05
2023-02-19T21:04:40.607Z,4.57
2023-02-19T21:07:07.312Z,4.70
2023-02-19T21:09:34.012Z,4.50
2023-02-19T21:12:00.749Z,4.32
2023-02-19T21:14:29.943Z,4.40
2023-02-19T21:16:56.662Z,4.57
2023-02-19T21:19:25.846Z,4.00
2023-02-19T21:21:54.805Z,4.43
2023-02-19T21:24:21.690Z,4.32
2023-02-19T21:26:48.794Z,4.53
2023-02-19T21:29:21.697Z,4.47
2023-02-19T21:31:51.780Z,5.00
2023-02-19T21:34:20.963Z,4.85
2023-02-19T21:36:47.717Z,4.57
2023-02-19T21:39:17.744Z,4.55
2023-02-19T21:41:44.826Z,5.07
2023-02-19T21:44:14.484Z,4.68
2023-02-19T21:46:43.895Z,5.68
2023-02-19T21:49:11.796Z,4.72
2023-02-19T21:51:43.173Z,5.40
2023-02-19T21:54:15.582Z,5.47
2023-02-19T21:56:42.348Z,5.43
2023-02-19T21:59:09.416Z,5.25
2023-02-19T22:01:42.135Z,6.28
2023-02-19T22:04:12.672Z,5.60
2023-02-19T22:06:44.420Z,7.25
2023-02-19T22:09:12.221Z,6.40
2023-02-19T22:11:38.921Z,6.07
2023-02-19T22:14:08.056Z,6.80
2023-02-19T22:16:34.938Z,6.53
2023-02-19T22:19:04.178Z,6.38
2023-02-19T22:21:34.755Z,6.47
2023-02-19T22:24:03.092Z,6.95
2023-02-19T22:26:35.145Z,6.32
2023-02-19T22:29:06.921Z,6.45
2023-02-19T22:31:34.664Z,6.53
2023-02-19T22:34:01.629Z,5.80
2023-02-19T22:36:37.113Z,5.80
2023-02-19T22:39:05.864Z,6.78
2023-02-19T22:41:35.279Z,5.63
2023-02-19T22:44:04.725Z,5.68
2023-02-19T22:46:31.610Z,6.53
2023-02-19T22:49:01.673Z,5.93
2023-02-19T22:51:30.753Z,6.03
2023-02-19T22:53:58.832Z,6.30
2023-02-19T22:56:27.883Z,6.05
2023-02-19T22:59:00.385Z,5.90
2023-02-19T23:01:29.653Z,5.47
2023-02-19T23:03:58.245Z,6.15
2023-02-19T23:06:30.136Z,6.35
2023-02-19T23:08:59.171Z,5.88
2023-02-19T23:11:35.233Z,5.77
2023-02-19T23:14:02.374Z,6.00
2023-02-19T23:16:40.377Z,5.75
2023-02-19T23:19:14.363Z,5.50
2023-02-19T23:21:43.545Z,5.10
2023-02-19T23:24:13.503Z,5.53
2023-02-19T23:29:25.169Z,5.47
2023-02-19T23:31:52.298Z,5.60
2023-02-19T23:34:19.456Z,5.85
2023-02-19T23:36:51.845Z,5.78
2023-02-19T23:39:20.677Z,5.93
2023-02-19T23:41:56.177Z,5.82
2023-02-19T23:44:27.711Z,6.07
2023-02-19T23:46:54.389Z,6.18
2023-02-19T23:49:23.713Z,6.53
2023-02-19T23:51:52.829Z,5.68
2023-02-19T23:54:19.528Z,5.87
2023-02-19T23:56:46.272Z,6.43
2023-02-19T23:59:13.186Z,6.70
